createdAt,value
2017-12-13T00:00:15.675Z,0
2017-12-13T00:01:17.488Z,0
2017-12-13T00:02:19.328Z,0
2017-12-13T00:03:21.172Z,0
2017-12-13T00:04:23.168Z,0
2017-12-13T00:05:25.001Z,0
2017-12-13T00:06:27.799Z,0
2017-12-13T00:07:29.630Z,0
2017-12-13T00:08:31.441Z,0
2017-12-13T00:09:33.311Z,0
2017-12-13T00:10:35.177Z,0
2017-12-13T00:11:36.999Z,0
2017-12-13T00:12:38.801Z,0
2017-12-13T00:13:40.589Z,0
2017-12-13T00:14:42.475Z,0
2017-12-13T00:15:44.227Z,0
2017-12-13T00:16:46.132Z,0
2017-12-13T00:17:48.038Z,0
2017-12-13T00:18:50.047Z,0
2017-12-13T00:19:51.710Z,0
2017-12-13T00:20:53.530Z,0
2017-12-13T00:21:55.253Z,0
2017-12-13T00:22:56.998Z,0
2017-12-13T00:23:58.770Z,0
2017-12-13T00:25:00.651Z,0
2017-12-13T00:26:02.545Z,0
2017-12-13T00:27:04.490Z,0
2017-12-13T00:28:06.108Z,0
2017-12-13T00:29:08.323Z,0
2017-12-13T00:30:10.231Z,0
2017-12-13T00:31:12.055Z,0
2017-12-13T00:32:13.930Z,0
2017-12-13T00:33:15.577Z,0
2017-12-13T00:34:17.456Z,0
2017-12-13T00:35:19.309Z,0
2017-12-13T00:36:21.141Z,0
2017-12-13T00:37:23.191Z,0
2017-12-13T00:38:25.062Z,0
2017-12-13T00:39:27.050Z,0
2017-12-13T00:40:28.999Z,0
2017-12-13T00:41:30.954Z,0
2017-12-13T00:42:32.872Z,0
2017-12-13T00:43:34.824Z,0
2017-12-13T00:44:36.751Z,0
2017-12-13T00:45:38.692Z,0
2017-12-13T00:46:40.609Z,0
2017-12-13T00:47:42.479Z,0
2017-12-13T00:48:44.337Z,0
2017-12-13T00:49:47.194Z,0
2017-12-13T00:50:48.886Z,0
2017-12-13T00:51:51.752Z,0
2017-12-13T00:52:53.612Z,0
2017-12-13T00:53:56.363Z,0
2017-12-13T00:54:58.274Z,0
2017-12-13T00:56:01.177Z,0
2017-12-13T00:57:03.141Z,0
2017-12-13T00:58:05.129Z,0
2017-12-13T00:59:07.010Z,0
2017-12-13T01:00:08.877Z,0
2017-12-13T01:01:10.787Z,0
2017-12-13T01:02:12.745Z,0
2017-12-13T01:03:14.693Z,0
2017-12-13T01:04:16.573Z,0
2017-12-13T01:05:18.478Z,0
2017-12-13T01:06:20.373Z,0
2017-12-13T01:07:22.250Z,0
2017-12-13T01:08:23.980Z,0
2017-12-13T01:09:25.812Z,0
2017-12-13T01:10:27.595Z,0
2017-12-13T01:11:29.513Z,0
2017-12-13T01:12:31.500Z,0
2017-12-13T01:13:33.235Z,0
2017-12-13T01:14:35.194Z,0
2017-12-13T01:15:36.875Z,0
2017-12-13T01:16:38.734Z,0
2017-12-13T01:17:40.711Z,0
2017-12-13T01:18:42.665Z,0
2017-12-13T01:19:44.660Z,0
2017-12-13T01:20:46.604Z,0
2017-12-13T01:21:48.461Z,0
2017-12-13T01:22:50.370Z,0
2017-12-13T01:23:52.231Z,0
2017-12-13T01:24:54.131Z,0
2017-12-13T01:25:56.066Z,0
2017-12-13T01:26:58.121Z,0
2017-12-13T01:28:00.124Z,0
2017-12-13T01:29:02.091Z,0
2017-12-13T01:30:04.082Z,0
2017-12-13T01:31:05.830Z,0
2017-12-13T01:32:07.864Z,0
2017-12-13T01:33:09.933Z,0
2017-12-13T01:34:11.703Z,0
2017-12-13T01:35:13.497Z,0
2017-12-13T01:36:15.328Z,0
2017-12-13T01:37:17.221Z,0
2017-12-13T01:38:19.153Z,0
2017-12-13T01:39:21.136Z,0
2017-12-13T01:40:23.149Z,0
2017-12-13T01:41:25.097Z,0
2017-12-13T01:42:26.984Z,0
2017-12-13T01:43:28.921Z,0
2017-12-13T01:44:30.846Z,0
2017-12-13T01:45:32.808Z,0
2017-12-13T01:46:34.870Z,0
2017-12-13T01:47:36.633Z,0
2017-12-13T01:48:38.451Z,0
2017-12-13T01:49:40.315Z,0
2017-12-13T01:50:42.326Z,0
2017-12-13T01:51:45.373Z,0
2017-12-13T01:52:47.193Z,0
2017-12-13T01:53:49.174Z,0
2017-12-13T01:54:51.128Z,0
2017-12-13T01:55:53.027Z,0
2017-12-13T01:56:54.988Z,0
2017-12-13T01:57:56.866Z,0
2017-12-13T01:58:59.357Z,0
2017-12-13T02:00:01.281Z,0
2017-12-13T02:01:03.197Z,0
2017-12-13T02:02:05.144Z,0
2017-12-13T02:03:06.993Z,0
2017-12-13T02:04:08.933Z,0
2017-12-13T02:05:10.836Z,0
2017-12-13T02:06:13.481Z,0
2017-12-13T02:07:15.380Z,0
2017-12-13T02:08:17.101Z,0
2017-12-13T02:09:18.995Z,0
2017-12-13T02:10:21.664Z,0
2017-12-13T02:11:23.514Z,0
2017-12-13T02:12:25.227Z,0
2017-12-13T02:13:27.111Z,0
2017-12-13T02:14:28.807Z,0
2017-12-13T02:15:30.792Z,0
2017-12-13T02:16:32.487Z,0
2017-12-13T02:17:34.231Z,0
2017-12-13T02:18:36.019Z,0
2017-12-13T02:19:37.889Z,0
2017-12-13T02:20:39.679Z,0
2017-12-13T02:21:41.620Z,0
2017-12-13T02:22:43.507Z,0
2017-12-13T02:23:45.529Z,0
2017-12-13T02:24:47.323Z,0
2017-12-13T02:25:49.133Z,0
2017-12-13T02:26:50.992Z,0
2017-12-13T02:27:52.848Z,0
2017-12-13T02:28:55.795Z,0
2017-12-13T02:29:57.546Z,0
2017-12-13T02:30:59.431Z,0
2017-12-13T02:32:01.258Z,0
2017-12-13T02:33:03.186Z,0
2017-12-13T02:34:04.907Z,0
2017-12-13T02:35:06.841Z,0
2017-12-13T02:36:08.704Z,0
2017-12-13T02:37:10.549Z,0
2017-12-13T02:38:12.495Z,0
2017-12-13T02:39:14.446Z,0
2017-12-13T02:40:16.160Z,0
2017-12-13T02:41:18.029Z,0
2017-12-13T02:42:19.834Z,0
2017-12-13T02:43:21.842Z,0
2017-12-13T02:44:23.984Z,0
2017-12-13T02:45:25.723Z,0
2017-12-13T02:46:27.479Z,0
2017-12-13T02:47:31.428Z,0
2017-12-13T02:48:33.029Z,0
2017-12-13T02:49:34.667Z,0
2017-12-13T02:50:36.605Z,0
2017-12-13T02:51:38.487Z,0
2017-12-13T02:52:40.386Z,0
2017-12-13T02:53:44.291Z,0
2017-12-13T02:54:46.182Z,0
2017-12-13T02:55:48.082Z,0
2017-12-13T02:56:50.064Z,0
2017-12-13T02:57:51.982Z,0
2017-12-13T02:58:54.855Z,0
2017-12-13T02:59:56.738Z,0
2017-12-13T03:00:58.796Z,0
2017-12-13T03:02:00.837Z,0
2017-12-13T03:03:02.814Z,0
2017-12-13T03:04:04.776Z,0
2017-12-13T03:05:06.833Z,0
2017-12-13T03:06:08.780Z,0
2017-12-13T03:07:10.770Z,0
2017-12-13T03:08:12.648Z,0
2017-12-13T03:09:14.539Z,0
2017-12-13T03:10:16.360Z,0
2017-12-13T03:11:18.275Z,0
2017-12-13T03:12:20.376Z,0
2017-12-13T03:13:22.388Z,0
2017-12-13T03:14:24.160Z,0
2017-12-13T03:15:26.087Z,0
2017-12-13T03:16:27.990Z,0
2017-12-13T03:17:29.936Z,0
2017-12-13T03:18:31.872Z,0
2017-12-13T03:19:34.763Z,0
2017-12-13T03:20:36.692Z,0
2017-12-13T03:21:38.444Z,0
2017-12-13T03:22:40.185Z,0
2017-12-13T03:23:42.156Z,0
2017-12-13T03:24:44.113Z,0
2017-12-13T03:25:45.821Z,0
2017-12-13T03:26:47.665Z,0
2017-12-13T03:27:49.631Z,0
2017-12-13T03:28:51.527Z,0
2017-12-13T03:29:53.470Z,0
2017-12-13T03:30:55.576Z,0
2017-12-13T03:31:57.339Z,0
2017-12-13T03:32:59.301Z,0
2017-12-13T03:34:01.262Z,0
2017-12-13T03:35:03.205Z,0
2017-12-13T03:36:05.142Z,0
2017-12-13T03:37:07.114Z,0
2017-12-13T03:38:09.056Z,0
2017-12-13T03:39:10.994Z,0
2017-12-13T03:40:13.390Z,0
2017-12-13T03:41:15.242Z,0
2017-12-13T03:42:17.122Z,0
2017-12-13T03:43:19.071Z,0
2017-12-13T03:44:21.025Z,0
2017-12-13T03:45:23.277Z,0
2017-12-13T03:46:26.363Z,0
2017-12-13T03:47:28.281Z,0
2017-12-13T03:48:31.150Z,0
2017-12-13T03:49:33.363Z,0
2017-12-13T03:50:35.418Z,0
2017-12-13T03:51:37.350Z,0
2017-12-13T03:52:40.304Z,0
2017-12-13T03:53:42.405Z,0
2017-12-13T03:54:44.409Z,0
2017-12-13T03:55:46.134Z,0
2017-12-13T03:56:48.132Z,0
2017-12-13T03:57:50.060Z,0
2017-12-13T03:58:51.989Z,0
2017-12-13T03:59:54.162Z,0
2017-12-13T04:00:56.190Z,0
2017-12-13T04:01:58.036Z,0
2017-12-13T04:02:59.914Z,0
2017-12-13T04:04:01.771Z,0
2017-12-13T04:05:04.602Z,0
2017-12-13T04:06:06.353Z,0
2017-12-13T04:07:08.373Z,0
2017-12-13T04:08:10.091Z,0
2017-12-13T04:09:12.181Z,0
2017-12-13T04:10:14.080Z,0
2017-12-13T04:11:17.079Z,0
2017-12-13T04:12:19.051Z,0
2017-12-13T04:13:20.992Z,0
2017-12-13T04:14:22.871Z,0
2017-12-13T04:15:24.654Z,0
2017-12-13T04:16:26.416Z,0
2017-12-13T04:17:28.343Z,0
2017-12-13T04:18:30.236Z,0
2017-12-13T04:19:32.281Z,0
2017-12-13T04:20:34.250Z,0
2017-12-13T04:21:37.217Z,0
2017-12-13T04:22:38.947Z,0
2017-12-13T04:23:40.887Z,0
2017-12-13T04:24:42.634Z,0
2017-12-13T04:25:44.524Z,0
2017-12-13T04:26:46.536Z,0
2017-12-13T04:27:48.527Z,0
2017-12-13T04:28:50.471Z,0
2017-12-13T04:29:52.480Z,0
2017-12-13T04:30:54.282Z,0
2017-12-13T04:31:56.245Z,0
2017-12-13T04:32:58.223Z,0
2017-12-13T04:34:00.106Z,0
2017-12-13T04:35:02.029Z,0
2017-12-13T04:36:03.821Z,0
2017-12-13T04:37:05.679Z,0
2017-12-13T04:38:07.653Z,0
2017-12-13T04:39:09.744Z,0
2017-12-13T04:40:11.751Z,0
2017-12-13T04:41:13.604Z,0
2017-12-13T04:42:15.479Z,0
2017-12-13T04:43:17.373Z,0
2017-12-13T04:44:19.392Z,0
2017-12-13T04:45:21.294Z,0
2017-12-13T04:46:23.409Z,0
2017-12-13T04:47:25.312Z,0
2017-12-13T04:48:27.245Z,0
2017-12-13T04:49:29.135Z,0
2017-12-13T04:50:31.137Z,0
2017-12-13T04:51:33.149Z,0
2017-12-13T04:52:36.133Z,0
2017-12-13T04:53:38.100Z,0
2017-12-13T04:54:39.997Z,0
2017-12-13T04:55:42.010Z,0
2017-12-13T04:56:44.930Z,0
2017-12-13T04:57:46.840Z,0
2017-12-13T04:58:48.783Z,0
2017-12-13T04:59:50.830Z,0
2017-12-13T05:00:52.753Z,0
2017-12-13T05:01:54.651Z,0
2017-12-13T05:02:56.510Z,0
2017-12-13T05:03:58.491Z,0
2017-12-13T05:05:00.498Z,0
2017-12-13T05:06:02.512Z,0
2017-12-13T05:07:04.252Z,0
2017-12-13T05:08:06.099Z,0
2017-12-13T05:09:07.946Z,0
2017-12-13T05:10:09.595Z,0
2017-12-13T05:11:11.443Z,0
2017-12-13T05:12:13.367Z,0
2017-12-13T05:13:15.065Z,0
2017-12-13T05:14:16.816Z,0
2017-12-13T05:15:18.487Z,0
2017-12-13T05:16:20.158Z,0
2017-12-13T05:17:21.853Z,0
2017-12-13T05:18:23.586Z,0
2017-12-13T05:19:25.298Z,0
2017-12-13T05:20:27.069Z,0
2017-12-13T05:21:29.072Z,0
2017-12-13T05:22:30.791Z,0
2017-12-13T05:23:32.640Z,0
2017-12-13T05:24:34.478Z,0
2017-12-13T05:25:36.357Z,0
2017-12-13T05:26:38.216Z,0
2017-12-13T05:27:39.818Z,0
2017-12-13T05:28:41.578Z,0
2017-12-13T05:29:43.265Z,0
2017-12-13T05:30:45.014Z,0
2017-12-13T05:31:46.701Z,0
2017-12-13T05:32:48.312Z,0
2017-12-13T05:33:49.970Z,0
2017-12-13T05:34:51.873Z,0
2017-12-13T05:35:54.482Z,0
2017-12-13T05:36:56.282Z,0
2017-12-13T05:37:58.142Z,0
2017-12-13T05:39:00.021Z,0
2017-12-13T05:40:01.851Z,0
2017-12-13T05:41:03.762Z,0
2017-12-13T05:42:05.567Z,0
2017-12-13T05:43:07.380Z,0
2017-12-13T05:44:09.381Z,0
2017-12-13T05:45:11.107Z,0
2017-12-13T05:46:12.780Z,0
2017-12-13T05:47:14.546Z,0
2017-12-13T05:48:16.398Z,0
2017-12-13T05:49:18.114Z,0
2017-12-13T05:50:19.880Z,0
2017-12-13T05:51:21.634Z,0
2017-12-13T05:52:23.486Z,0
2017-12-13T05:53:25.161Z,0
2017-12-13T05:54:27.456Z,0
2017-12-13T05:55:29.099Z,0
2017-12-13T05:56:30.888Z,0
2017-12-13T05:57:32.823Z,0
2017-12-13T05:58:34.653Z,0
2017-12-13T05:59:36.423Z,0
2017-12-13T06:00:40.270Z,0
2017-12-13T06:01:42.168Z,0
2017-12-13T06:02:43.997Z,0
2017-12-13T06:03:45.819Z,0
2017-12-13T06:04:48.699Z,0
2017-12-13T06:05:50.442Z,0
2017-12-13T06:06:52.233Z,0
2017-12-13T06:07:54.150Z,0
2017-12-13T06:08:56.140Z,0
2017-12-13T06:09:57.892Z,0
2017-12-13T06:10:59.899Z,0
2017-12-13T06:12:01.661Z,0
2017-12-13T06:13:03.411Z,0
2017-12-13T06:14:05.130Z,0
2017-12-13T06:15:06.983Z,0
2017-12-13T06:16:08.670Z,0
2017-12-13T06:17:10.406Z,0
2017-12-13T06:18:12.303Z,0
2017-12-13T06:19:13.959Z,0
2017-12-13T06:20:15.714Z,0
2017-12-13T06:21:18.698Z,0
2017-12-13T06:22:20.539Z,0
2017-12-13T06:23:22.249Z,0
2017-12-13T06:24:23.956Z,0
2017-12-13T06:25:25.793Z,0
2017-12-13T06:26:27.659Z,0
2017-12-13T06:27:29.396Z,0
2017-12-13T06:28:31.380Z,0
2017-12-13T06:29:33.238Z,0
2017-12-13T06:30:35.006Z,0
2017-12-13T06:31:38.054Z,0
2017-12-13T06:32:39.801Z,0
2017-12-13T06:33:41.738Z,0
2017-12-13T06:34:43.765Z,0
2017-12-13T06:35:45.512Z,0
2017-12-13T06:36:47.379Z,4
2017-12-13T06:37:49.235Z,4
2017-12-13T06:38:51.341Z,4
2017-12-13T06:39:53.356Z,4
2017-12-13T06:40:55.161Z,4
2017-12-13T06:41:56.974Z,8
2017-12-13T06:42:58.719Z,4
2017-12-13T06:44:00.467Z,8
2017-12-13T06:45:02.432Z,8
2017-12-13T06:46:04.449Z,8
2017-12-13T06:47:06.173Z,12
2017-12-13T06:48:08.049Z,16
2017-12-13T06:49:09.866Z,16
2017-12-13T06:50:11.642Z,16
2017-12-13T06:51:13.386Z,20
2017-12-13T06:52:15.262Z,24
2017-12-13T06:53:17.135Z,28
2017-12-13T06:54:20.043Z,28
2017-12-13T06:55:22.039Z,32
2017-12-13T06:56:23.803Z,40
2017-12-13T06:57:25.520Z,48
2017-12-13T06:58:27.249Z,56
2017-12-13T06:59:29.006Z,60
2017-12-13T07:00:30.694Z,76
2017-12-13T07:01:32.437Z,92
2017-12-13T07:02:34.209Z,104
2017-12-13T07:03:35.924Z,120
2017-12-13T07:04:37.728Z,144
2017-12-13T07:05:39.647Z,168
2017-12-13T07:06:41.336Z,192
2017-12-13T07:07:43.264Z,212
2017-12-13T07:08:45.123Z,236
2017-12-13T07:09:46.966Z,272
2017-12-13T07:10:49.668Z,300
2017-12-13T07:11:51.601Z,324
2017-12-13T07:12:53.354Z,348
2017-12-13T07:13:55.300Z,360
2017-12-13T07:14:57.063Z,380
2017-12-13T07:15:58.847Z,424
2017-12-13T07:17:01.615Z,452
2017-12-13T07:18:03.319Z,492
2017-12-13T07:19:05.385Z,528
2017-12-13T07:20:07.173Z,556
2017-12-13T07:21:08.889Z,592
2017-12-13T07:22:10.755Z,640
2017-12-13T07:23:12.647Z,704
2017-12-13T07:24:14.435Z,764
2017-12-13T07:25:16.287Z,828
2017-12-13T07:26:18.019Z,876
2017-12-13T07:27:19.928Z,916
2017-12-13T07:28:21.723Z,964
2017-12-13T07:29:23.423Z,1020
2017-12-13T07:30:25.233Z,1048
2017-12-13T07:31:27.083Z,1092
2017-12-13T07:32:28.933Z,1164
2017-12-13T07:33:30.674Z,1220
2017-12-13T07:34:32.652Z,1264
2017-12-13T07:35:34.781Z,1300
2017-12-13T07:36:36.516Z,1332
2017-12-13T07:37:38.399Z,1400
2017-12-13T07:38:40.086Z,1520
2017-12-13T07:39:41.826Z,1656
2017-12-13T07:40:43.490Z,1816
2017-12-13T07:41:45.177Z,1820
2017-12-13T07:42:47.119Z,1812
2017-12-13T07:43:49.137Z,1892
2017-12-13T07:44:50.932Z,1952
2017-12-13T07:45:52.720Z,2004
2017-12-13T07:46:54.539Z,2132
2017-12-13T07:47:56.380Z,2268
2017-12-13T07:48:58.118Z,2360
2017-12-13T07:50:00.041Z,2500
2017-12-13T07:51:02.076Z,2704
2017-12-13T07:52:03.848Z,2836
2017-12-13T07:53:05.677Z,2812
2017-12-13T07:54:08.521Z,2756
2017-12-13T07:55:10.417Z,2720
2017-12-13T07:56:12.583Z,2760
2017-12-13T07:57:14.272Z,2868
2017-12-13T07:58:16.062Z,2972
2017-12-13T07:59:17.784Z,2992
2017-12-13T08:00:19.548Z,3236
2017-12-13T08:01:21.308Z,3436
2017-12-13T08:02:22.989Z,3576
2017-12-13T08:03:25.014Z,3744
2017-12-13T08:04:26.841Z,3924
2017-12-13T08:05:28.953Z,4096
2017-12-13T08:06:30.708Z,4048
2017-12-13T08:07:32.938Z,4156
2017-12-13T08:08:35.043Z,4288
2017-12-13T08:09:36.865Z,4160
2017-12-13T08:10:38.790Z,4220
2017-12-13T08:11:40.721Z,4456
2017-12-13T08:12:43.541Z,4464
2017-12-13T08:13:45.184Z,4468
2017-12-13T08:14:49.076Z,4504
2017-12-13T08:15:50.814Z,4780
2017-12-13T08:16:52.817Z,5048
2017-12-13T08:17:54.608Z,5008
2017-12-13T08:18:56.384Z,5000
2017-12-13T08:19:58.105Z,4944
2017-12-13T08:20:59.918Z,5592
2017-12-13T08:22:01.581Z,6344
2017-12-13T08:23:03.289Z,6304
2017-12-13T08:24:05.023Z,6764
2017-12-13T08:25:06.975Z,7600
2017-12-13T08:26:08.787Z,8072
2017-12-13T08:27:10.732Z,7540
2017-12-13T08:28:12.467Z,7316
2017-12-13T08:29:14.169Z,7908
2017-12-13T08:30:16.176Z,7564
2017-12-13T08:31:17.910Z,7408
2017-12-13T08:32:19.897Z,6716
2017-12-13T08:33:21.677Z,7024
2017-12-13T08:34:23.469Z,6696
2017-12-13T08:35:25.502Z,6436
2017-12-13T08:36:27.305Z,6112
2017-12-13T08:37:29.064Z,5912
2017-12-13T08:38:30.840Z,5884
2017-12-13T08:39:33.787Z,6472
2017-12-13T08:40:35.868Z,6140
2017-12-13T08:41:37.829Z,5984
2017-12-13T08:42:39.581Z,7276
2017-12-13T08:43:41.534Z,7444
2017-12-13T08:44:43.409Z,7868
2017-12-13T08:45:45.254Z,8316
2017-12-13T08:46:46.991Z,7168
2017-12-13T08:47:48.795Z,6060
2017-12-13T08:48:50.676Z,5352
2017-12-13T08:49:52.472Z,5188
2017-12-13T08:50:54.267Z,5288
2017-12-13T08:51:56.066Z,5512
2017-12-13T08:52:57.833Z,5604
2017-12-13T08:53:59.539Z,6188
2017-12-13T08:55:01.476Z,6548
2017-12-13T08:56:03.315Z,7508
2017-12-13T08:57:05.228Z,15924
2017-12-13T08:58:07.221Z,16928
2017-12-13T08:59:08.995Z,7568
2017-12-13T09:00:11.915Z,7124
2017-12-13T09:01:13.752Z,7952
2017-12-13T09:02:15.533Z,9544
2017-12-13T09:03:17.579Z,14696
2017-12-13T09:04:19.338Z,15744
2017-12-13T09:05:21.473Z,10608
2017-12-13T09:06:25.362Z,9684
2017-12-13T09:07:27.090Z,10016
2017-12-13T09:08:28.887Z,9684
2017-12-13T09:09:30.573Z,9848
2017-12-13T09:10:32.466Z,11000
2017-12-13T09:11:34.272Z,10124
2017-12-13T09:12:36.020Z,10644
2017-12-13T09:13:37.732Z,9664
2017-12-13T09:14:39.608Z,14256
2017-12-13T09:15:41.328Z,10280
2017-12-13T09:16:43.516Z,11528
2017-12-13T09:17:45.271Z,9852
2017-12-13T09:18:47.111Z,8912
2017-12-13T09:19:49.038Z,8144
2017-12-13T09:20:50.813Z,7208
2017-12-13T09:21:52.537Z,6724
2017-12-13T09:22:54.402Z,6652
2017-12-13T09:23:56.164Z,7776
2017-12-13T09:24:57.960Z,14500
2017-12-13T09:25:59.677Z,9500
2017-12-13T09:27:01.523Z,9392
2017-12-13T09:28:03.340Z,14376
2017-12-13T09:29:05.096Z,16960
2017-12-13T09:30:06.846Z,17696
2017-12-13T09:31:08.676Z,17888
2017-12-13T09:32:10.733Z,18624
2017-12-13T09:33:12.443Z,17920
2017-12-13T09:34:14.138Z,18208
2017-12-13T09:35:16.283Z,18816
2017-12-13T09:36:18.068Z,19584
2017-12-13T09:37:19.817Z,19328
2017-12-13T09:38:21.626Z,18656
2017-12-13T09:39:23.343Z,18720
2017-12-13T09:40:25.053Z,18784
2017-12-13T09:41:26.815Z,17600
2017-12-13T09:42:28.625Z,18048
2017-12-13T09:43:30.420Z,18080
2017-12-13T09:44:32.296Z,15816
2017-12-13T09:45:34.333Z,17408
2017-12-13T09:46:36.125Z,16176
2017-12-13T09:47:37.899Z,16436
2017-12-13T09:48:39.719Z,18816
2017-12-13T09:49:41.617Z,17760
2017-12-13T09:50:43.462Z,17984
2017-12-13T09:51:45.279Z,18048
2017-12-13T09:52:47.206Z,15600
2017-12-13T09:53:49.130Z,16828
2017-12-13T09:54:50.853Z,20928
2017-12-13T09:55:52.787Z,20992
2017-12-13T09:56:54.757Z,19520
2017-12-13T09:57:56.615Z,16684
2017-12-13T09:58:58.597Z,16232
2017-12-13T10:00:00.587Z,18368
2017-12-13T10:01:02.429Z,17888
2017-12-13T10:02:04.272Z,18624
2017-12-13T10:03:06.033Z,19328
2017-12-13T10:04:08.059Z,19264
2017-12-13T10:05:10.053Z,19328
2017-12-13T10:06:11.758Z,19488
2017-12-13T10:07:13.559Z,19776
2017-12-13T10:08:15.297Z,20064
2017-12-13T10:09:17.056Z,20064
2017-12-13T10:10:19.804Z,19552
2017-12-13T10:11:21.526Z,18976
2017-12-13T10:12:23.371Z,19104
2017-12-13T10:13:25.376Z,18880
2017-12-13T10:14:27.191Z,18848
2017-12-13T10:15:28.949Z,19264
2017-12-13T10:16:30.914Z,19392
2017-12-13T10:17:32.988Z,16668
2017-12-13T10:18:34.650Z,15900
2017-12-13T10:19:36.614Z,16076
2017-12-13T10:20:38.398Z,18720
2017-12-13T10:21:40.329Z,18592
2017-12-13T10:22:42.344Z,19744
2017-12-13T10:23:44.156Z,22624
2017-12-13T10:24:45.890Z,23328
2017-12-13T10:25:47.736Z,23520
2017-12-13T10:26:49.517Z,23968
2017-12-13T10:27:51.260Z,21792
2017-12-13T10:28:53.101Z,22528
2017-12-13T10:29:54.902Z,21888
2017-12-13T10:30:56.760Z,20896
2017-12-13T10:31:58.554Z,21152
2017-12-13T10:33:00.347Z,21568
2017-12-13T10:34:02.104Z,22400
2017-12-13T10:35:03.879Z,23232
2017-12-13T10:36:05.736Z,24384
2017-12-13T10:37:07.570Z,25344
2017-12-13T10:38:09.320Z,25184
2017-12-13T10:39:11.084Z,23968
2017-12-13T10:40:12.909Z,21728
2017-12-13T10:41:14.783Z,22464
2017-12-13T10:42:16.550Z,22592
2017-12-13T10:43:18.369Z,21472
2017-12-13T10:44:20.218Z,22240
2017-12-13T10:45:22.404Z,22720
2017-12-13T10:46:24.273Z,23072
2017-12-13T10:47:26.275Z,23072
2017-12-13T10:48:28.082Z,22688
2017-12-13T10:49:30.130Z,23008
2017-12-13T10:50:32.621Z,22848
2017-12-13T10:51:34.441Z,22112
2017-12-13T10:52:36.252Z,21280
2017-12-13T10:53:38.227Z,21856
2017-12-13T10:54:40.147Z,21472
2017-12-13T10:55:42.177Z,20928
2017-12-13T10:56:43.973Z,20800
2017-12-13T10:57:46.242Z,20512
2017-12-13T10:58:48.097Z,20256
2017-12-13T10:59:49.839Z,20000
2017-12-13T11:00:51.787Z,19392
2017-12-13T11:01:53.818Z,19680
2017-12-13T11:02:55.700Z,19616
2017-12-13T11:03:57.523Z,19744
2017-12-13T11:04:59.391Z,20032
2017-12-13T11:06:02.221Z,19776
2017-12-13T11:07:04.026Z,19392
2017-12-13T11:08:05.773Z,19072
2017-12-13T11:09:07.545Z,18656
2017-12-13T11:10:09.380Z,18464
2017-12-13T11:11:11.404Z,18016
2017-12-13T11:12:13.209Z,17632
2017-12-13T11:13:16.211Z,17536
2017-12-13T11:14:18.299Z,17664
2017-12-13T11:15:20.212Z,17536
2017-12-13T11:16:22.100Z,16940
2017-12-13T11:17:24.220Z,16424
2017-12-13T11:18:26.079Z,16092
2017-12-13T11:19:27.934Z,16028
2017-12-13T11:20:29.804Z,15964
2017-12-13T11:21:31.641Z,15908
2017-12-13T11:22:33.545Z,15740
2017-12-13T11:23:35.590Z,15584
2017-12-13T11:24:37.855Z,15372
2017-12-13T11:25:39.876Z,15136
2017-12-13T11:26:41.689Z,14840
2017-12-13T11:27:43.685Z,14516
2017-12-13T11:28:45.463Z,14240
2017-12-13T11:29:47.440Z,14144
2017-12-13T11:30:49.611Z,14264
2017-12-13T11:31:51.420Z,14552
2017-12-13T11:32:53.736Z,14828
2017-12-13T11:33:55.935Z,15072
2017-12-13T11:34:57.725Z,15184
2017-12-13T11:35:59.607Z,15332
2017-12-13T11:37:01.525Z,15536
2017-12-13T11:38:03.586Z,15512
2017-12-13T11:39:05.652Z,15380
2017-12-13T11:40:07.786Z,15184
2017-12-13T11:41:10.322Z,14796
2017-12-13T11:42:12.552Z,14372
2017-12-13T11:43:14.306Z,14008
2017-12-13T11:44:16.374Z,13852
2017-12-13T11:45:18.281Z,13696
2017-12-13T11:46:20.038Z,13512
2017-12-13T11:47:22.055Z,13320
2017-12-13T11:48:23.803Z,13236
2017-12-13T11:49:25.877Z,13244
2017-12-13T11:50:27.726Z,13268
2017-12-13T11:51:29.612Z,13148
2017-12-13T11:52:31.686Z,12880
2017-12-13T11:53:33.727Z,12504
2017-12-13T11:54:36.019Z,12132
2017-12-13T11:55:37.977Z,11900
2017-12-13T11:56:39.860Z,11828
2017-12-13T11:57:41.683Z,11840
2017-12-13T11:58:43.446Z,11896
2017-12-13T11:59:45.427Z,11948
2017-12-13T12:00:47.381Z,11956
2017-12-13T12:01:49.360Z,11880
2017-12-13T12:02:51.223Z,11672
2017-12-13T12:03:53.135Z,11312
2017-12-13T12:04:54.944Z,10924
2017-12-13T12:05:56.744Z,10564
2017-12-13T12:06:58.526Z,10180
2017-12-13T12:08:00.316Z,9792
2017-12-13T12:09:02.176Z,9356
2017-12-13T12:10:05.016Z,8896
2017-12-13T12:11:06.967Z,8356
2017-12-13T12:12:08.998Z,7808
2017-12-13T12:13:10.839Z,7296
2017-12-13T12:14:13.829Z,6960
2017-12-13T12:15:15.589Z,6796
2017-12-13T12:16:17.597Z,6764
2017-12-13T12:17:19.751Z,6832
2017-12-13T12:18:21.582Z,6856
2017-12-13T12:19:23.400Z,6804
2017-12-13T12:20:26.250Z,6812
2017-12-13T12:21:28.205Z,6816
2017-12-13T12:22:30.141Z,6728
2017-12-13T12:23:31.975Z,6600
2017-12-13T12:24:33.800Z,6444
2017-12-13T12:25:36.060Z,6272
2017-12-13T12:26:37.819Z,6136
2017-12-13T12:27:39.861Z,6000
2017-12-13T12:28:42.779Z,5772
2017-12-13T12:29:44.583Z,5560
2017-12-13T12:30:46.804Z,5412
2017-12-13T12:31:48.677Z,5316
2017-12-13T12:32:50.664Z,5276
2017-12-13T12:33:52.811Z,5212
2017-12-13T12:34:54.850Z,5120
2017-12-13T12:35:56.677Z,4968
2017-12-13T12:36:58.561Z,4832
2017-12-13T12:38:00.269Z,4732
2017-12-13T12:39:02.012Z,4708
2017-12-13T12:40:04.289Z,4640
2017-12-13T12:41:06.139Z,4500
2017-12-13T12:42:07.877Z,4292
2017-12-13T12:43:09.972Z,4076
2017-12-13T12:44:11.785Z,3924
2017-12-13T12:45:13.907Z,3840
2017-12-13T12:46:15.685Z,3772
2017-12-13T12:47:17.624Z,3720
2017-12-13T12:48:19.604Z,3680
2017-12-13T12:49:21.498Z,3564
2017-12-13T12:50:23.601Z,3380
2017-12-13T12:51:25.569Z,3244
2017-12-13T12:52:27.440Z,3108
2017-12-13T12:53:29.764Z,2880
2017-12-13T12:54:31.651Z,2716
2017-12-13T12:55:33.495Z,2608
2017-12-13T12:56:35.319Z,2568
2017-12-13T12:57:37.396Z,2544
2017-12-13T12:58:39.577Z,2476
2017-12-13T12:59:42.633Z,2448
2017-12-13T13:00:44.878Z,2504
2017-12-13T13:01:46.859Z,2624
2017-12-13T13:02:48.819Z,2624
2017-12-13T13:03:50.689Z,2588
2017-12-13T13:04:52.653Z,2576
2017-12-13T13:05:54.897Z,2568
2017-12-13T13:06:57.015Z,2480
2017-12-13T13:07:59.057Z,2376
2017-12-13T13:09:00.987Z,2280
2017-12-13T13:10:02.938Z,2316
2017-12-13T13:11:04.867Z,2320
2017-12-13T13:12:07.676Z,2316
2017-12-13T13:13:09.569Z,2248
2017-12-13T13:14:11.556Z,2176
2017-12-13T13:15:13.399Z,2084
2017-12-13T13:16:15.812Z,2012
2017-12-13T13:17:17.557Z,1988
2017-12-13T13:18:19.280Z,1960
2017-12-13T13:19:21.046Z,1948
2017-12-13T13:20:23.932Z,1984
2017-12-13T13:21:25.700Z,2136
2017-12-13T13:22:28.642Z,2100
2017-12-13T13:23:30.526Z,2016
2017-12-13T13:24:32.500Z,2104
2017-12-13T13:25:34.287Z,2264
2017-12-13T13:26:36.231Z,2432
2017-12-13T13:27:38.118Z,2608
2017-12-13T13:28:40.950Z,2784
2017-12-13T13:29:42.980Z,2684
2017-12-13T13:30:44.888Z,2668
2017-12-13T13:31:46.608Z,2872
2017-12-13T13:32:49.407Z,2772
2017-12-13T13:33:51.347Z,2428
2017-12-13T13:34:53.196Z,2144
2017-12-13T13:35:55.113Z,2112
2017-12-13T13:36:57.255Z,2076
2017-12-13T13:37:59.657Z,1764
2017-12-13T13:39:01.670Z,1544
2017-12-13T13:40:03.478Z,1444
2017-12-13T13:41:05.474Z,1400
2017-12-13T13:42:07.492Z,1428
2017-12-13T13:43:09.583Z,1336
2017-12-13T13:44:11.439Z,1240
2017-12-13T13:45:13.224Z,1016
2017-12-13T13:46:15.047Z,1028
2017-12-13T13:47:16.933Z,1092
2017-12-13T13:48:18.744Z,1144
2017-12-13T13:49:20.688Z,1060
2017-12-13T13:50:22.592Z,972
2017-12-13T13:51:24.505Z,956
2017-12-13T13:52:26.437Z,1056
2017-12-13T13:53:28.499Z,1152
2017-12-13T13:54:30.163Z,1000
2017-12-13T13:55:31.986Z,1044
2017-12-13T13:56:33.853Z,948
2017-12-13T13:57:35.604Z,880
2017-12-13T13:58:37.509Z,900
2017-12-13T13:59:39.130Z,916
2017-12-13T14:00:40.686Z,964
2017-12-13T14:01:42.568Z,1020
2017-12-13T14:02:44.108Z,972
2017-12-13T14:03:45.760Z,876
2017-12-13T14:04:47.368Z,992
2017-12-13T14:05:49.016Z,976
2017-12-13T14:06:50.645Z,1012
2017-12-13T14:08:09.167Z,1036
2017-12-13T14:09:10.691Z,1148
2017-12-13T14:10:13.372Z,1028
2017-12-13T14:11:15.098Z,1100
2017-12-13T14:12:16.896Z,1164
2017-12-13T14:13:18.509Z,1052
2017-12-13T14:14:20.224Z,1100
2017-12-13T14:15:22.083Z,1128
2017-12-13T14:16:23.888Z,948
2017-12-13T14:17:25.578Z,1068
2017-12-13T14:18:27.252Z,1208
2017-12-13T14:19:28.923Z,1248
2017-12-13T14:20:30.709Z,1148
2017-12-13T14:21:32.478Z,1120